Главная страница
METAR-TAF:

METAR-TAF

Аэропорты :

Elmira / Corning, Нью-Йорк, США

широта: 42-09-23N, долгота: 076-54-10W, высота над уровнем моря: 291 м

Текущие метеонаблюдения

Эта сводка был подготовлена 1 час и 2 минут назад, в 00:53 UTC
Ветер 7 Узел от западный
Температура -7°C
Влажность 57%
Давление 1022 hPa
Видимость: 16.1 км
ясное небо

METAR: KELM 130053Z 27007KT 10SM CLR M07/M14 A3017 RMK AO2 SLP232 T10671144

Время: 20:55 (01:55 UTC)

Прогноз

Эта сводка был подготовлена 2 часа и 18 минут назад, в 23:37 UTC
Прогноз действительный с 13-го 00 UTC до 13-го 24 UTC
Ветер 9 Узел от западно-северо-западный
Видимость: 10 км
Отдельные облака на высоте 3500 фута
С 13-го 1400 UTC
Ветер 4 Узел от западный
Видимость: 10 км
Отдельные облака на высоте 3000 фута
С 13-го 1800 UTC
Ветер 5 Узел от западно-северо-западный
Видимость: 10 км
Отдельные облака на высоте 6000 фута

TAF: KELM 122337Z 1300/1324 29009KT P6SM SCT035 FM131400 28004KT P6SM SCT030 FM131800 29005KT P6SM SCT060

Метеонаблюдения и прогнозы для более 4000 аэропортов (сводки METAR и TAF).

Имеющиеся станции представлены на карте желтыми и красными точками.

Чтобы увидеть название станции, наведите на нее мышь.

Затем щелкните, чтобы увидеть метеонаблюдения и метеопрогнозы.

Управление картой: чтобы увеличить масштаб, щелкните зеленые кнопки с черным крестиком; чтобы уменьшить масштаб, щелкните зеленую кнопку с тире; для просмотра соседних карт щелкайте зеленые стрелки.


METAR-TAF: